sensor_id;sensor_type;location;lat;lon;timestamp;pressure;altitude;pressure_sealevel;temperature;humidity
85189;BME280;75559;49.132;8.922;2024-03-23T00:53:47;98519.97;;;8.13;92.95
85189;BME280;75559;49.132;8.922;2024-03-23T00:56:13;98524.34;;;8.14;94.13
85189;BME280;75559;49.132;8.922;2024-03-23T00:58:38;98503.94;;;7.93;93.59
85189;BME280;75559;49.132;8.922;2024-03-23T01:01:03;98522.50;;;7.93;94.23
85189;BME280;75559;49.132;8.922;2024-03-23T01:03:29;98514.72;;;7.88;94.78
85189;BME280;75559;49.132;8.922;2024-03-23T01:06:01;98519.78;;;7.94;94.99
85189;BME280;75559;49.132;8.922;2024-03-23T01:08:26;98496.81;;;7.95;94.52
85189;BME280;75559;49.132;8.922;2024-03-23T01:10:59;98497.25;;;8.06;94.20
85189;BME280;75559;49.132;8.922;2024-03-23T01:13:25;98489.25;;;8.08;94.07
85189;BME280;75559;49.132;8.922;2024-03-23T01:15:51;98468.59;;;7.94;94.00
85189;BME280;75559;49.132;8.922;2024-03-23T01:18:20;98493.34;;;7.93;94.60
85189;BME280;75559;49.132;8.922;2024-03-23T01:20:46;98485.81;;;7.82;94.66
85189;BME280;75559;49.132;8.922;2024-03-23T01:23:11;98501.81;;;7.79;95.11
85189;BME280;75559;49.132;8.922;2024-03-23T01:25:37;98485.59;;;7.65;95.05
85189;BME280;75559;49.132;8.922;2024-03-23T01:28:03;98486.75;;;7.58;95.10
85189;BME280;75559;49.132;8.922;2024-03-23T01:30:28;98484.56;;;7.44;95.23
85189;BME280;75559;49.132;8.922;2024-03-23T01:32:56;98486.53;;;7.39;96.46
85189;BME280;75559;49.132;8.922;2024-03-23T01:35:21;98477.78;;;7.37;97.05
85189;BME280;75559;49.132;8.922;2024-03-23T01:37:46;98465.81;;;7.50;96.73
85189;BME280;75559;49.132;8.922;2024-03-23T01:40:12;98444.41;;;7.33;96.04
85189;BME280;75559;49.132;8.922;2024-03-23T01:42:39;98424.19;;;7.07;96.55
85189;BME280;75559;49.132;8.922;2024-03-23T01:45:07;98456.75;;;7.09;97.03
85189;BME280;75559;49.132;8.922;2024-03-23T01:47:33;98443.91;;;6.98;96.92
85189;BME280;75559;49.132;8.922;2024-03-23T01:49:59;98440.56;;;6.92;97.59
85189;BME280;75559;49.132;8.922;2024-03-23T01:52:24;98454.59;;;6.95;97.69
85189;BME280;75559;49.132;8.922;2024-03-23T01:54:50;98434.53;;;6.88;97.25
85189;BME280;75559;49.132;8.922;2024-03-23T01:57:16;98452.84;;;6.94;97.79
85189;BME280;75559;49.132;8.922;2024-03-23T01:59:42;98454.22;;;6.80;97.35
85189;BME280;75559;49.132;8.922;2024-03-23T02:02:07;98415.19;;;6.61;98.33
85189;BME280;75559;49.132;8.922;2024-03-23T02:04:33;98439.06;;;6.85;98.01
85189;BME280;75559;49.132;8.922;2024-03-23T02:06:58;98430.25;;;6.84;98.49
85189;BME280;75559;49.132;8.922;2024-03-23T02:09:23;98424.88;;;6.87;98.03
85189;BME280;75559;49.132;8.922;2024-03-23T02:11:49;98403.34;;;6.73;98.13
85189;BME280;75559;49.132;8.922;2024-03-23T02:14:15;98430.91;;;6.91;98.31
85189;BME280;75559;49.132;8.922;2024-03-23T02:16:40;98428.09;;;6.97;98.17
85189;BME280;75559;49.132;8.922;2024-03-23T02:19:06;98420.72;;;7.05;98.39
85189;BME280;75559;49.132;8.922;2024-03-23T02:21:32;98407.44;;;7.07;98.44
85189;BME280;75559;49.132;8.922;2024-03-23T02:23:59;98423.56;;;7.24;98.18
85189;BME280;75559;49.132;8.922;2024-03-23T02:26:24;98395.50;;;7.20;97.91
85189;BME280;75559;49.132;8.922;2024-03-23T02:28:50;98407.19;;;7.38;98.23
85189;BME280;75559;49.132;8.922;2024-03-23T02:31:15;98411.00;;;7.54;98.11
85189;BME280;75559;49.132;8.922;2024-03-23T02:33:46;98415.72;;;7.69;97.31
85189;BME280;75559;49.132;8.922;2024-03-23T02:36:11;98417.75;;;8.06;95.18
85189;BME280;75559;49.132;8.922;2024-03-23T02:38:37;98392.06;;;8.30;92.16
85189;BME280;75559;49.132;8.922;2024-03-23T02:41:03;98398.06;;;8.98;88.39
85189;BME280;75559;49.132;8.922;2024-03-23T02:43:29;98387.25;;;9.60;85.54
85189;BME280;75559;49.132;8.922;2024-03-23T02:45:54;98402.44;;;9.96;84.16
85189;BME280;75559;49.132;8.922;2024-03-23T02:48:20;98391.88;;;9.94;82.88
85189;BME280;75559;49.132;8.922;2024-03-23T02:50:45;98388.66;;;10.42;80.68
85189;BME280;75559;49.132;8.922;2024-03-23T02:53:13;98395.94;;;10.91;79.59
85189;BME280;75559;49.132;8.922;2024-03-23T02:55:38;98379.97;;;11.08;77.83
85189;BME280;75559;49.132;8.922;2024-03-23T02:58:04;98366.16;;;11.17;77.76
85189;BME280;75559;49.132;8.922;2024-03-23T03:00:32;98370.09;;;11.43;77.18
85189;BME280;75559;49.132;8.922;2024-03-23T03:02:57;98378.31;;;11.38;77.12
85189;BME280;75559;49.132;8.922;2024-03-23T03:05:23;98385.06;;;11.13;78.87
85189;BME280;75559;49.132;8.922;2024-03-23T03:07:51;98379.97;;;11.08;79.30
85189;BME280;75559;49.132;8.922;2024-03-23T03:10:19;98371.84;;;11.27;78.07
85189;BME280;75559;49.132;8.922;2024-03-23T03:12:44;98364.66;;;11.45;77.58
85189;BME280;75559;49.132;8.922;2024-03-23T03:15:10;98372.41;;;11.49;77.57
85189;BME280;75559;49.132;8.922;2024-03-23T03:17:35;98384.59;;;11.70;76.84
85189;BME280;75559;49.132;8.922;2024-03-23T03:20:00;98383.63;;;11.71;77.17
85189;BME280;75559;49.132;8.922;2024-03-23T03:22:26;98383.69;;;11.87;75.77
85189;BME280;75559;49.132;8.922;2024-03-23T03:24:51;98366.25;;;11.64;77.47
85189;BME280;75559;49.132;8.922;2024-03-23T03:27:16;98379.47;;;11.83;76.46
85189;BME280;75559;49.132;8.922;2024-03-23T03:29:42;98381.69;;;12.07;75.11
85189;BME280;75559;49.132;8.922;2024-03-23T03:32:07;98369.03;;;12.10;75.47
85189;BME280;75559;49.132;8.922;2024-03-23T03:34:33;98377.38;;;12.04;75.93
85189;BME280;75559;49.132;8.922;2024-03-23T03:36:58;98359.41;;;11.92;76.20
85189;BME280;75559;49.132;8.922;2024-03-23T03:39:25;98363.13;;;11.89;76.65
85189;BME280;75559;49.132;8.922;2024-03-23T03:41:52;98338.25;;;11.73;77.45
85189;BME280;75559;49.132;8.922;2024-03-23T03:44:18;98356.59;;;11.79;77.54
85189;BME280;75559;49.132;8.922;2024-03-23T03:46:43;98359.16;;;11.81;78.19
85189;BME280;75559;49.132;8.922;2024-03-23T03:49:08;98359.47;;;11.75;78.45
85189;BME280;75559;49.132;8.922;2024-03-23T03:51:34;98347.19;;;11.72;79.17
85189;BME280;75559;49.132;8.922;2024-03-23T03:53:59;98341.53;;;11.78;78.62
85189;BME280;75559;49.132;8.922;2024-03-23T03:56:25;98324.31;;;11.68;79.22
85189;BME280;75559;49.132;8.922;2024-03-23T03:58:50;98352.19;;;11.94;78.76
85189;BME280;75559;49.132;8.922;2024-03-23T04:01:16;98331.13;;;11.89;78.90
85189;BME280;75559;49.132;8.922;2024-03-23T04:03:42;98340.59;;;11.95;79.07
85189;BME280;75559;49.132;8.922;2024-03-23T04:06:09;98349.53;;;11.94;79.21
85189;BME280;75559;49.132;8.922;2024-03-23T04:08:35;98329.81;;;11.96;78.89
85189;BME280;75559;49.132;8.922;2024-03-23T04:11:00;98335.16;;;11.96;78.66
85189;BME280;75559;49.132;8.922;2024-03-23T04:13:26;98325.63;;;11.92;78.97
85189;BME280;75559;49.132;8.922;2024-03-23T04:15:55;98331.13;;;11.89;79.42
85189;BME280;75559;49.132;8.922;2024-03-23T04:18:20;98327.78;;;11.86;79.72
85189;BME280;75559;49.132;8.922;2024-03-23T04:20:47;98326.41;;;11.79;80.70
85189;BME280;75559;49.132;8.922;2024-03-23T04:23:12;98334.53;;;11.76;81.03
85189;BME280;75559;49.132;8.922;2024-03-23T04:25:37;98328.34;;;11.59;82.17
85189;BME280;75559;49.132;8.922;2024-03-23T04:28:03;98354.56;;;11.67;81.75
85189;BME280;75559;49.132;8.922;2024-03-23T04:30:29;98340.09;;;11.55;83.55
85189;BME280;75559;49.132;8.922;2024-03-23T04:32:55;98353.28;;;11.58;83.25
85189;BME280;75559;49.132;8.922;2024-03-23T04:35:22;98332.69;;;11.45;83.32
85189;BME280;75559;49.132;8.922;2024-03-23T04:37:50;98333.38;;;11.32;83.91
85189;BME280;75559;49.132;8.922;2024-03-23T04:40:16;98324.78;;;11.27;84.23
85189;BME280;75559;49.132;8.922;2024-03-23T04:42:42;98335.19;;;11.32;83.49
85189;BME280;75559;49.132;8.922;2024-03-23T04:45:08;98325.63;;;11.28;83.07
85189;BME280;75559;49.132;8.922;2024-03-23T04:47:34;98340.84;;;11.41;82.71
85189;BME280;75559;49.132;8.922;2024-03-23T04:50:01;98343.69;;;11.38;81.77
85189;BME280;75559;49.132;8.922;2024-03-23T04:52:27;98352.19;;;11.45;82.36
85189;BME280;75559;49.132;8.922;2024-03-23T04:54:52;98324.84;;;11.26;82.44
85189;BME280;75559;49.132;8.922;2024-03-23T04:57:17;98351.94;;;11.34;81.12
85189;BME280;75559;49.132;8.922;2024-03-23T04:59:43;98368.28;;;11.44;81.11
85189;BME280;75559;49.132;8.922;2024-03-23T05:02:08;98342.75;;;11.39;78.34
85189;BME280;75559;49.132;8.922;2024-03-23T05:04:35;98361.22;;;11.43;78.78
85189;BME280;75559;49.132;8.922;2024-03-23T05:07:02;98358.31;;;11.47;79.40
85189;BME280;75559;49.132;8.922;2024-03-23T05:09:27;98356.06;;;11.39;80.46
85189;BME280;75559;49.132;8.922;2024-03-23T05:11:55;98375.03;;;11.33;81.52
85189;BME280;75559;49.132;8.922;2024-03-23T05:14:21;98364.97;;;11.23;79.72
85189;BME280;75559;49.132;8.922;2024-03-23T05:16:46;98376.81;;;11.17;79.40
85189;BME280;75559;49.132;8.922;2024-03-23T05:19:12;98358.06;;;11.03;81.28
85189;BME280;75559;49.132;8.922;2024-03-23T05:21:37;98362.72;;;10.98;80.65
85189;BME280;75559;49.132;8.922;2024-03-23T05:24:05;98357.81;;;10.90;80.18
85189;BME280;75559;49.132;8.922;2024-03-23T05:26:31;98352.19;;;10.79;82.02
85189;BME280;75559;49.132;8.922;2024-03-23T05:28:59;98356.50;;;10.64;81.91
85189;BME280;75559;49.132;8.922;2024-03-23T05:31:25;98355.72;;;10.62;80.76
85189;BME280;75559;49.132;8.922;2024-03-23T05:33:51;98382.56;;;10.58;83.20
85189;BME280;75559;49.132;8.922;2024-03-23T05:36:17;98381.69;;;10.57;82.67
85189;BME280;75559;49.132;8.922;2024-03-23T05:38:42;98381.78;;;10.56;80.14
85189;BME280;75559;49.132;8.922;2024-03-23T05:41:08;98398.22;;;10.64;79.54
85189;BME280;75559;49.132;8.922;2024-03-23T05:43:33;98405.19;;;10.66;78.38
85189;BME280;75559;49.132;8.922;2024-03-23T05:45:59;98384.75;;;10.67;77.93
85189;BME280;75559;49.132;8.922;2024-03-23T05:48:26;98394.78;;;10.62;77.73
85189;BME280;75559;49.132;8.922;2024-03-23T05:50:52;98392.34;;;10.57;78.22
85189;BME280;75559;49.132;8.922;2024-03-23T05:53:19;98385.91;;;10.44;77.73
85189;BME280;75559;49.132;8.922;2024-03-23T05:55:47;98410.00;;;10.41;78.27
85189;BME280;75559;49.132;8.922;2024-03-23T05:58:14;98413.97;;;10.32;78.16
85189;BME280;75559;49.132;8.922;2024-03-23T06:00:39;98432.44;;;10.35;79.96
85189;BME280;75559;49.132;8.922;2024-03-23T06:03:05;98436.63;;;10.22;78.38
85189;BME280;75559;49.132;8.922;2024-03-23T06:05:30;98435.94;;;10.17;78.38
85189;BME280;75559;49.132;8.922;2024-03-23T06:07:55;98451.91;;;10.17;80.09
85189;BME280;75559;49.132;8.922;2024-03-23T06:10:21;98447.16;;;10.05;78.84
85189;BME280;75559;49.132;8.922;2024-03-23T06:12:46;98454.06;;;10.09;79.93
85189;BME280;75559;49.132;8.922;2024-03-23T06:15:11;98470.00;;;10.09;80.36
85189;BME280;75559;49.132;8.922;2024-03-23T06:17:37;98462.91;;;10.09;80.36
85189;BME280;75559;49.132;8.922;2024-03-23T06:20:03;98466.41;;;10.10;79.13
85189;BME280;75559;49.132;8.922;2024-03-23T06:22:29;98470.88;;;10.09;79.28
85189;BME280;75559;49.132;8.922;2024-03-23T06:24:54;98488.56;;;10.10;78.98
85189;BME280;75559;49.132;8.922;2024-03-23T06:27:20;98502.00;;;10.07;79.11
85189;BME280;75559;49.132;8.922;2024-03-23T06:29:45;98504.94;;;10.01;79.88
85189;BME280;75559;49.132;8.922;2024-03-23T06:32:10;98511.63;;;10.10;79.24
85189;BME280;75559;49.132;8.922;2024-03-23T06:34:36;98513.41;;;10.09;78.51
85189;BME280;75559;49.132;8.922;2024-03-23T06:37:01;98508.53;;;10.00;78.57
85189;BME280;75559;49.132;8.922;2024-03-23T06:39:28;98524.41;;;10.02;79.32
85189;BME280;75559;49.132;8.922;2024-03-23T06:41:54;98539.63;;;9.98;79.57
85189;BME280;75559;49.132;8.922;2024-03-23T06:44:20;98537.31;;;9.91;80.39
85189;BME280;75559;49.132;8.922;2024-03-23T06:46:46;98538.63;;;9.80;81.02
85189;BME280;75559;49.132;8.922;2024-03-23T06:49:12;98563.56;;;9.78;80.78
85189;BME280;75559;49.132;8.922;2024-03-23T06:51:38;98577.19;;;9.70;83.12
85189;BME280;75559;49.132;8.922;2024-03-23T06:54:04;98579.44;;;9.59;83.98
85189;BME280;75559;49.132;8.922;2024-03-23T06:56:30;98575.53;;;9.47;83.66
85189;BME280;75559;49.132;8.922;2024-03-23T06:58:56;98592.47;;;9.45;81.43
85189;BME280;75559;49.132;8.922;2024-03-23T07:01:22;98594.91;;;9.29;80.50
85189;BME280;75559;49.132;8.922;2024-03-23T07:03:47;98597.25;;;9.15;80.86
85189;BME280;75559;49.132;8.922;2024-03-23T07:06:12;98600.28;;;9.06;81.22
85189;BME280;75559;49.132;8.922;2024-03-23T07:08:38;98608.00;;;9.12;80.49
85189;BME280;75559;49.132;8.922;2024-03-23T07:11:03;98605.53;;;9.07;80.45
85189;BME280;75559;49.132;8.922;2024-03-23T07:13:30;98606.34;;;9.09;80.32
85189;BME280;75559;49.132;8.922;2024-03-23T07:15:55;98637.06;;;9.15;79.85
85189;BME280;75559;49.132;8.922;2024-03-23T07:18:23;98610.97;;;9.04;81.90
85189;BME280;75559;49.132;8.922;2024-03-23T07:20:55;98639.59;;;9.18;79.63
85189;BME280;75559;49.132;8.922;2024-03-23T07:23:24;98645.09;;;9.13;79.69
85189;BME280;75559;49.132;8.922;2024-03-23T07:25:56;98649.53;;;9.13;80.54
85189;BME280;75559;49.132;8.922;2024-03-23T07:28:22;98649.00;;;9.05;79.57
85189;BME280;75559;49.132;8.922;2024-03-23T07:30:47;98656.94;;;9.05;78.84
85189;BME280;75559;49.132;8.922;2024-03-23T07:33:12;98661.34;;;9.06;79.45
85189;BME280;75559;49.132;8.922;2024-03-23T07:35:38;98659.72;;;9.02;78.53
85189;BME280;75559;49.132;8.922;2024-03-23T07:38:03;98664.41;;;8.95;79.20
85189;BME280;75559;49.132;8.922;2024-03-23T07:40:30;98673.25;;;8.96;79.04
85189;BME280;75559;49.132;8.922;2024-03-23T07:42:56;98668.19;;;8.90;80.76
85189;BME280;75559;49.132;8.922;2024-03-23T07:45:21;98692.91;;;8.90;81.62
85189;BME280;75559;49.132;8.922;2024-03-23T07:47:46;98683.53;;;8.81;81.09
85189;BME280;75559;49.132;8.922;2024-03-23T07:50:12;98712.34;;;8.91;81.59
85189;BME280;75559;49.132;8.922;2024-03-23T07:52:37;98712.72;;;8.81;81.64
85189;BME280;75559;49.132;8.922;2024-03-23T07:55:03;98713.06;;;8.72;80.12
85189;BME280;75559;49.132;8.922;2024-03-23T07:57:28;98716.28;;;8.80;81.12
85189;BME280;75559;49.132;8.922;2024-03-23T07:59:53;98737.50;;;9.04;82.34
85189;BME280;75559;49.132;8.922;2024-03-23T08:02:19;98744.81;;;8.97;80.61
85189;BME280;75559;49.132;8.922;2024-03-23T08:04:44;98745.13;;;8.90;80.83
85189;BME280;75559;49.132;8.922;2024-03-23T08:07:09;98743.41;;;8.88;81.07
85189;BME280;75559;49.132;8.922;2024-03-23T08:09:35;98747.31;;;9.02;79.27
85189;BME280;75559;49.132;8.922;2024-03-23T08:12:00;98777.56;;;9.65;76.54
85189;BME280;75559;49.132;8.922;2024-03-23T08:14:25;98772.53;;;11.02;71.32
85189;BME280;75559;49.132;8.922;2024-03-23T08:16:51;98758.72;;;11.13;68.61
85189;BME280;75559;49.132;8.922;2024-03-23T08:19:16;98784.34;;;10.76;69.35
85189;BME280;75559;49.132;8.922;2024-03-23T08:21:41;98775.69;;;10.53;68.71
85189;BME280;75559;49.132;8.922;2024-03-23T08:24:07;98806.91;;;10.27;70.68
85189;BME280;75559;49.132;8.922;2024-03-23T08:26:33;98795.53;;;10.02;71.08
85189;BME280;75559;49.132;8.922;2024-03-23T08:28:58;98797.69;;;10.14;73.00
85189;BME280;75559;49.132;8.922;2024-03-23T08:31:23;98789.22;;;10.26;70.52
85189;BME280;75559;49.132;8.922;2024-03-23T08:33:49;98802.22;;;10.93;69.41
85189;BME280;75559;49.132;8.922;2024-03-23T08:36:14;98815.03;;;10.85;69.95
85189;BME280;75559;49.132;8.922;2024-03-23T08:38:40;98810.34;;;10.51;69.39
85189;BME280;75559;49.132;8.922;2024-03-23T08:41:10;98801.53;;;10.29;70.13
85189;BME280;75559;49.132;8.922;2024-03-23T08:43:36;98820.91;;;10.53;69.50
85189;BME280;75559;49.132;8.922;2024-03-23T08:46:08;98818.44;;;10.48;68.18
85189;BME280;75559;49.132;8.922;2024-03-23T08:48:35;98827.56;;;10.42;66.57
85189;BME280;75559;49.132;8.922;2024-03-23T08:51:02;98815.38;;;10.57;66.17
85189;BME280;75559;49.132;8.922;2024-03-23T08:53:28;98815.28;;;10.79;65.09
85189;BME280;75559;49.132;8.922;2024-03-23T08:55:55;98838.50;;;13.31;59.13
85189;BME280;75559;49.132;8.922;2024-03-23T08:58:20;98827.09;;;15.83;52.70
85189;BME280;75559;49.132;8.922;2024-03-23T09:00:46;98836.50;;;16.84;48.63
85189;BME280;75559;49.132;8.922;2024-03-23T09:03:12;98831.25;;;18.08;46.40
85189;BME280;75559;49.132;8.922;2024-03-23T09:05:40;98819.81;;;19.11;42.76
85189;BME280;75559;49.132;8.922;2024-03-23T09:08:06;98827.69;;;16.82;46.31
85189;BME280;75559;49.132;8.922;2024-03-23T09:10:34;98835.81;;;15.87;49.80
85189;BME280;75559;49.132;8.922;2024-03-23T09:13:00;98825.22;;;14.24;52.00
85189;BME280;75559;49.132;8.922;2024-03-23T09:15:25;98844.91;;;13.60;53.98
85189;BME280;75559;49.132;8.922;2024-03-23T09:17:50;98851.53;;;12.16;55.43
85189;BME280;75559;49.132;8.922;2024-03-23T09:20:16;98838.38;;;11.76;57.30
85189;BME280;75559;49.132;8.922;2024-03-23T09:22:41;98847.22;;;11.76;57.72
85189;BME280;75559;49.132;8.922;2024-03-23T09:25:07;98848.09;;;13.82;53.50
85189;BME280;75559;49.132;8.922;2024-03-23T09:27:32;98849.59;;;15.95;46.01
85189;BME280;75559;49.132;8.922;2024-03-23T09:29:58;98847.31;;;15.03;47.27
85189;BME280;75559;49.132;8.922;2024-03-23T09:32:24;98847.94;;;13.85;50.43
85189;BME280;75559;49.132;8.922;2024-03-23T09:34:49;98845.44;;;14.14;49.80
85189;BME280;75559;49.132;8.922;2024-03-23T09:37:14;98832.97;;;14.74;48.21
85189;BME280;75559;49.132;8.922;2024-03-23T09:39:40;98844.06;;;14.68;48.81
85189;BME280;75559;49.132;8.922;2024-03-23T09:42:06;98855.09;;;13.69;50.70
85189;BME280;75559;49.132;8.922;2024-03-23T09:44:32;98872.84;;;12.70;55.00
85189;BME280;75559;49.132;8.922;2024-03-23T09:46:58;98848.47;;;11.88;56.27
85189;BME280;75559;49.132;8.922;2024-03-23T09:49:24;98871.16;;;11.59;58.85
85189;BME280;75559;49.132;8.922;2024-03-23T09:51:50;98866.78;;;11.19;59.08
85189;BME280;75559;49.132;8.922;2024-03-23T09:54:16;98877.78;;;10.70;59.68
85189;BME280;75559;49.132;8.922;2024-03-23T09:56:41;98878.91;;;10.65;61.89
85189;BME280;75559;49.132;8.922;2024-03-23T09:59:07;98878.56;;;10.72;60.92
85189;BME280;75559;49.132;8.922;2024-03-23T10:01:32;98873.44;;;10.88;59.04
85189;BME280;75559;49.132;8.922;2024-03-23T10:03:58;98864.59;;;10.67;60.78
85189;BME280;75559;49.132;8.922;2024-03-23T10:06:24;98867.13;;;10.50;59.15
85189;BME280;75559;49.132;8.922;2024-03-23T10:08:52;98889.66;;;10.41;62.34
85189;BME280;75559;49.132;8.922;2024-03-23T10:11:19;98880.63;;;10.24;61.55
85189;BME280;75559;49.132;8.922;2024-03-23T10:13:46;98881.66;;;10.20;63.56
85189;BME280;75559;49.132;8.922;2024-03-23T10:16:12;98886.16;;;10.18;62.57
85189;BME280;75559;49.132;8.922;2024-03-23T10:18:41;98878.78;;;10.26;61.63
85189;BME280;75559;49.132;8.922;2024-03-23T10:21:11;98890.41;;;10.23;62.97
85189;BME280;75559;49.132;8.922;2024-03-23T10:23:41;98895.44;;;10.07;62.06
85189;BME280;75559;49.132;8.922;2024-03-23T10:26:14;98888.34;;;9.86;62.86
85189;BME280;75559;49.132;8.922;2024-03-23T10:29:06;98905.53;;;9.76;64.83
85189;BME280;75559;49.132;8.922;2024-03-23T10:31:36;98897.59;;;9.52;65.65
85189;BME280;75559;49.132;8.922;2024-03-23T10:34:03;98889.03;;;9.21;65.15
85189;BME280;75559;49.132;8.922;2024-03-23T10:36:29;98913.47;;;9.06;68.03
85189;BME280;75559;49.132;8.922;2024-03-23T10:38:55;98906.88;;;8.93;66.89
85189;BME280;75559;49.132;8.922;2024-03-23T10:41:26;98908.81;;;8.87;69.17
85189;BME280;75559;49.132;8.922;2024-03-23T10:43:51;98915.31;;;9.04;68.24
85189;BME280;75559;49.132;8.922;2024-03-23T10:46:17;98899.94;;;9.13;66.91
85189;BME280;75559;49.132;8.922;2024-03-23T10:48:43;98894.13;;;9.50;66.63
85189;BME280;75559;49.132;8.922;2024-03-23T10:51:09;98885.28;;;9.73;65.17
85189;BME280;75559;49.132;8.922;2024-03-23T10:53:35;98885.84;;;9.81;62.02
85189;BME280;75559;49.132;8.922;2024-03-23T10:56:02;98883.34;;;9.77;61.93
85189;BME280;75559;49.132;8.922;2024-03-23T10:58:41;98870.59;;;9.87;60.74
85189;BME280;75559;49.132;8.922;2024-03-23T11:01:10;98887.47;;;10.07;62.12
85189;BME280;75559;49.132;8.922;2024-03-23T11:03:37;98889.28;;;10.29;59.75
85189;BME280;75559;49.132;8.922;2024-03-23T11:06:06;98891.00;;;10.30;60.64
85189;BME280;75559;49.132;8.922;2024-03-23T11:11:20;98894.34;;;9.91;61.32
85189;BME280;75559;49.132;8.922;2024-03-23T11:13:50;98890.63;;;10.17;62.25
85189;BME280;75559;49.132;8.922;2024-03-23T11:16:28;98883.03;;;10.72;61.10
85189;BME280;75559;49.132;8.922;2024-03-23T11:19:37;98880.22;;;11.16;58.07
85189;BME280;75559;49.132;8.922;2024-03-23T11:22:03;98882.06;;;11.34;57.40
85189;BME280;75559;49.132;8.922;2024-03-23T11:24:30;98847.25;;;10.99;56.46
85189;BME280;75559;49.132;8.922;2024-03-23T11:26:55;98873.94;;;12.48;53.86
85189;BME280;75559;49.132;8.922;2024-03-23T11:29:21;98863.47;;;13.79;51.26
85189;BME280;75559;49.132;8.922;2024-03-23T11:31:47;98877.78;;;14.25;50.96
85189;BME280;75559;49.132;8.922;2024-03-23T11:34:15;98862.25;;;15.36;47.62
85189;BME280;75559;49.132;8.922;2024-03-23T11:36:41;98872.72;;;13.89;47.54
85189;BME280;75559;49.132;8.922;2024-03-23T11:39:15;98869.00;;;13.91;49.20
85189;BME280;75559;49.132;8.922;2024-03-23T11:42:00;98869.91;;;15.13;46.73
85189;BME280;75559;49.132;8.922;2024-03-23T11:44:27;98856.75;;;13.87;46.67
85189;BME280;75559;49.132;8.922;2024-03-23T11:46:53;98864.97;;;13.36;48.35
85189;BME280;75559;49.132;8.922;2024-03-23T11:49:28;98864.09;;;13.35;48.94
85189;BME280;75559;49.132;8.922;2024-03-23T11:51:55;98857.69;;;13.71;49.75
85189;BME280;75559;49.132;8.922;2024-03-23T11:54:25;98850.94;;;13.79;48.25
85189;BME280;75559;49.132;8.922;2024-03-23T11:56:57;98846.34;;;15.18;47.10
85189;BME280;75559;49.132;8.922;2024-03-23T11:59:35;98843.59;;;14.76;45.89
85189;BME280;75559;49.132;8.922;2024-03-23T12:02:09;98843.34;;;14.50;45.91
85189;BME280;75559;49.132;8.922;2024-03-23T12:04:36;98812.16;;;15.22;45.88
85189;BME280;75559;49.132;8.922;2024-03-23T12:07:20;98849.22;;;15.44;41.58
85189;BME280;75559;49.132;8.922;2024-03-23T12:10:02;98836.28;;;15.22;42.80
85189;BME280;75559;49.132;8.922;2024-03-23T12:12:27;98821.25;;;15.05;42.68
85189;BME280;75559;49.132;8.922;2024-03-23T12:15:06;98822.25;;;16.02;40.30
85189;BME280;75559;49.132;8.922;2024-03-23T12:17:33;98830.75;;;15.39;42.04
85189;BME280;75559;49.132;8.922;2024-03-23T12:20:00;98822.53;;;14.24;44.14
85189;BME280;75559;49.132;8.922;2024-03-23T12:22:25;98817.75;;;14.45;43.75
85189;BME280;75559;49.132;8.922;2024-03-23T12:24:54;98807.28;;;13.32;43.22
85189;BME280;75559;49.132;8.922;2024-03-23T12:27:19;98822.03;;;12.19;46.27
85189;BME280;75559;49.132;8.922;2024-03-23T12:29:44;98815.00;;;11.99;49.77
85189;BME280;75559;49.132;8.922;2024-03-23T12:32:12;98826.84;;;11.94;52.77
85189;BME280;75559;49.132;8.922;2024-03-23T12:34:38;98819.94;;;11.90;54.32
85189;BME280;75559;49.132;8.922;2024-03-23T12:37:04;98821.09;;;11.65;56.26
85189;BME280;75559;49.132;8.922;2024-03-23T12:39:29;98824.47;;;11.69;55.68
85189;BME280;75559;49.132;8.922;2024-03-23T12:41:54;98827.00;;;12.61;55.35
85189;BME280;75559;49.132;8.922;2024-03-23T12:44:20;98812.47;;;13.35;50.30
85189;BME280;75559;49.132;8.922;2024-03-23T12:46:46;98821.16;;;14.48;48.23
85189;BME280;75559;49.132;8.922;2024-03-23T12:49:11;98821.63;;;13.78;51.68
85189;BME280;75559;49.132;8.922;2024-03-23T12:51:37;98825.72;;;14.46;48.60
85189;BME280;75559;49.132;8.922;2024-03-23T12:54:03;98817.56;;;14.78;47.65
85189;BME280;75559;49.132;8.922;2024-03-23T12:56:28;98808.84;;;14.60;46.77
85189;BME280;75559;49.132;8.922;2024-03-23T12:58:54;98815.03;;;12.68;50.31
85189;BME280;75559;49.132;8.922;2024-03-23T13:01:20;98841.16;;;11.54;52.06
85189;BME280;75559;49.132;8.922;2024-03-23T13:03:49;98869.50;;;11.17;58.11
85189;BME280;75559;49.132;8.922;2024-03-23T13:06:16;98890.47;;;10.22;65.99
85189;BME280;75559;49.132;8.922;2024-03-23T13:08:44;98865.00;;;9.26;66.41
85189;BME280;75559;49.132;8.922;2024-03-23T13:11:12;98849.28;;;8.71;69.56
85189;BME280;75559;49.132;8.922;2024-03-23T13:13:39;98847.59;;;8.69;68.85
85189;BME280;75559;49.132;8.922;2024-03-23T13:16:04;98826.97;;;9.24;67.78
85189;BME280;75559;49.132;8.922;2024-03-23T13:18:31;98832.06;;;9.53;67.98
85189;BME280;75559;49.132;8.922;2024-03-23T13:20:57;98831.81;;;9.59;66.93
85189;BME280;75559;49.132;8.922;2024-03-23T13:23:22;98825.19;;;9.47;65.24
85189;BME280;75559;49.132;8.922;2024-03-23T13:25:55;98869.38;;;9.50;67.34
85189;BME280;75559;49.132;8.922;2024-03-23T13:28:23;98917.91;;;9.05;66.06
85189;BME280;75559;49.132;8.922;2024-03-23T13:30:56;98933.44;;;8.40;73.99
85189;BME280;75559;49.132;8.922;2024-03-23T13:33:22;98948.34;;;7.86;73.67
85189;BME280;75559;49.132;8.922;2024-03-23T13:35:54;98966.78;;;7.29;74.86
85189;BME280;75559;49.132;8.922;2024-03-23T13:38:22;98953.41;;;7.03;77.44
85189;BME280;75559;49.132;8.922;2024-03-23T13:41:06;98860.66;;;6.76;75.48
85189;BME280;75559;49.132;8.922;2024-03-23T13:43:32;98907.59;;;7.32;77.34
85189;BME280;75559;49.132;8.922;2024-03-23T13:45:59;98901.13;;;8.27;73.24
85189;BME280;75559;49.132;8.922;2024-03-23T13:48:25;98899.69;;;9.19;72.91
85189;BME280;75559;49.132;8.922;2024-03-23T13:51:04;98891.88;;;9.63;70.34
85189;BME280;75559;49.132;8.922;2024-03-23T13:53:30;98875.78;;;9.90;73.19
85189;BME280;75559;49.132;8.922;2024-03-23T13:55:55;98865.19;;;9.66;66.40
85189;BME280;75559;49.132;8.922;2024-03-23T13:58:21;98859.91;;;9.88;65.97